createdAt,value
2019-05-14T00:00:46.407Z,2.00
2019-05-14T00:03:17.253Z,2.33
2019-05-14T00:05:48.063Z,2.07
2019-05-14T00:08:18.887Z,2.03
2019-05-14T00:10:51.806Z,2.50
2019-05-14T00:13:22.755Z,2.50
2019-05-14T00:15:54.100Z,2.80
2019-05-14T00:18:24.987Z,2.50
2019-05-14T00:20:55.818Z,2.93
2019-05-14T00:23:26.785Z,2.87
2019-05-14T00:26:01.503Z,3.30
2019-05-14T00:28:31.878Z,2.73
2019-05-14T00:31:03.121Z,2.67
2019-05-14T00:33:34.996Z,3.10
2019-05-14T00:36:05.912Z,2.90
2019-05-14T00:38:36.775Z,2.90
2019-05-14T00:41:07.641Z,2.93
2019-05-14T00:43:38.548Z,2.57
2019-05-14T00:46:11.686Z,3.10
2019-05-14T00:48:42.352Z,2.93
2019-05-14T00:51:13.180Z,3.43
2019-05-14T00:53:44.032Z,2.77
2019-05-14T00:56:14.877Z,3.37
2019-05-14T00:58:46.189Z,3.27
2019-05-14T01:01:17.021Z,3.37
2019-05-14T01:03:47.837Z,2.80
2019-05-14T01:06:18.648Z,3.23
2019-05-14T01:08:51.687Z,2.73
2019-05-14T01:11:22.258Z,3.10
2019-05-14T01:13:53.126Z,3.33
2019-05-14T01:16:23.896Z,2.63
2019-05-14T01:18:54.715Z,3.47
2019-05-14T01:21:25.597Z,3.47
2019-05-14T01:23:56.387Z,3.47
2019-05-14T01:26:27.247Z,3.27
2019-05-14T01:28:58.294Z,2.87
2019-05-14T01:31:31.308Z,3.70
2019-05-14T01:34:02.314Z,2.80
2019-05-14T01:36:33.290Z,2.90
2019-05-14T01:39:05.318Z,3.03
2019-05-14T01:41:36.161Z,3.20
2019-05-14T01:44:07.981Z,2.97
2019-05-14T01:46:38.736Z,3.63
2019-05-14T01:49:12.028Z,2.80
2019-05-14T01:51:44.099Z,3.23
2019-05-14T01:54:14.990Z,3.43
2019-05-14T01:56:45.932Z,3.30
2019-05-14T01:59:17.110Z,3.67
2019-05-14T02:01:48.040Z,3.00
2019-05-14T02:04:18.900Z,3.40
2019-05-14T02:06:51.511Z,3.13
2019-05-14T02:09:22.722Z,2.77
2019-05-14T02:11:53.684Z,2.80
2019-05-14T02:14:24.558Z,2.83
2019-05-14T02:16:55.483Z,3.53
2019-05-14T02:19:26.390Z,3.37
2019-05-14T02:21:58.228Z,3.00
2019-05-14T02:24:29.098Z,3.27
2019-05-14T02:27:01.887Z,3.20
2019-05-14T02:29:32.782Z,3.33
2019-05-14T02:32:04.721Z,3.73
2019-05-14T02:34:39.446Z,4.47
2019-05-14T02:37:09.402Z,3.33
2019-05-14T02:39:41.184Z,2.90
2019-05-14T02:42:13.221Z,3.53
2019-05-14T02:44:44.095Z,3.17
2019-05-14T02:47:15.010Z,3.60
2019-05-14T02:49:45.832Z,3.47
2019-05-14T02:52:20.080Z,3.10
2019-05-14T02:54:49.765Z,3.17
2019-05-14T02:57:20.990Z,2.70
2019-05-14T02:59:51.854Z,4.37
2019-05-14T03:02:22.895Z,4.20
2019-05-14T03:04:53.869Z,4.00
2019-05-14T03:07:24.791Z,4.40
2019-05-14T03:09:55.624Z,3.57
2019-05-14T03:12:29.988Z,3.13
2019-05-14T03:14:59.070Z,4.93
2019-05-14T03:17:30.249Z,3.90
2019-05-14T03:20:02.185Z,3.63
2019-05-14T03:22:46.350Z,3.73
2019-05-14T03:25:06.058Z,3.60
2019-05-14T03:27:40.142Z,3.10
2019-05-14T03:30:12.386Z,3.40
2019-05-14T03:32:44.084Z,3.93
2019-05-14T03:35:15.160Z,3.20
2019-05-14T03:37:49.198Z,3.27
2019-05-14T03:40:19.557Z,4.00
2019-05-14T03:42:50.460Z,3.27
2019-05-14T03:45:21.404Z,3.07
2019-05-14T03:47:52.243Z,3.60
2019-05-14T03:50:23.187Z,4.03
2019-05-14T03:52:54.010Z,3.90
2019-05-14T03:55:24.794Z,3.40
2019-05-14T03:57:59.209Z,3.23
2019-05-14T04:00:50.743Z,3.63
2019-05-14T04:03:22.350Z,3.60
2019-05-14T04:05:54.072Z,3.87
2019-05-14T04:08:29.302Z,3.57
2019-05-14T04:11:00.937Z,4.37
2019-05-14T04:13:33.072Z,5.13
2019-05-14T04:16:04.266Z,3.83
2019-05-14T04:18:40.314Z,4.63
2019-05-14T04:21:13.182Z,3.40
2019-05-14T04:23:50.952Z,4.87
2019-05-14T04:26:22.461Z,4.30
2019-05-14T04:28:55.175Z,4.23
2019-05-14T04:31:29.791Z,3.70
2019-05-14T04:34:02.613Z,4.57
2019-05-14T04:36:33.482Z,3.63
2019-05-14T04:39:05.439Z,3.70
2019-05-14T04:41:39.443Z,2.57
2019-05-14T04:44:09.964Z,3.87
2019-05-14T04:46:40.879Z,3.43
2019-05-14T04:49:11.779Z,4.27
2019-05-14T04:51:42.750Z,4.23
2019-05-14T04:54:13.905Z,4.13
2019-05-14T04:56:44.771Z,3.10
2019-05-14T04:59:19.014Z,3.03
2019-05-14T05:01:49.293Z,3.90
2019-05-14T05:04:20.638Z,3.10
2019-05-14T05:06:51.765Z,5.00
2019-05-14T05:09:22.594Z,3.60
2019-05-14T05:11:53.792Z,3.23
2019-05-14T05:14:24.669Z,3.97
2019-05-14T05:16:55.591Z,2.77
2019-05-14T05:19:28.946Z,3.47
2019-05-14T05:21:58.939Z,3.60
2019-05-14T05:24:29.825Z,2.90
2019-05-14T05:27:00.915Z,3.30
2019-05-14T05:29:33.019Z,3.03
2019-05-14T05:32:03.957Z,3.03
2019-05-14T05:34:34.790Z,3.87
2019-05-14T05:37:05.729Z,3.07
2019-05-14T05:39:38.673Z,2.97
2019-05-14T05:42:09.442Z,2.63
2019-05-14T05:44:40.355Z,2.67
2019-05-14T05:47:11.343Z,2.80
2019-05-14T05:49:42.182Z,2.20
2019-05-14T05:52:13.095Z,2.47
2019-05-14T05:54:43.938Z,2.57
2019-05-14T05:57:14.854Z,2.67
2019-05-14T05:59:48.230Z,2.50
2019-05-14T06:02:18.809Z,2.40
2019-05-14T06:04:50.399Z,2.83
2019-05-14T06:07:21.552Z,2.45
2019-05-14T06:09:53.157Z,2.37
2019-05-14T06:12:24.044Z,2.37
2019-05-14T06:14:54.972Z,1.95
2019-05-14T06:17:28.293Z,2.12
2019-05-14T06:19:59.209Z,2.58
2019-05-14T06:22:30.130Z,1.90
2019-05-14T06:25:01.021Z,1.95
2019-05-14T06:27:32.210Z,2.35
2019-05-14T06:30:03.039Z,1.77
2019-05-14T06:32:34.056Z,2.30
2019-05-14T06:35:04.966Z,2.10
2019-05-14T06:37:38.283Z,2.58
2019-05-14T06:40:09.136Z,2.00
2019-05-14T06:42:40.457Z,2.05
2019-05-14T06:45:11.551Z,1.65
2019-05-14T06:47:42.514Z,1.85
2019-05-14T06:50:13.692Z,1.25
2019-05-14T06:52:44.816Z,1.62
2019-05-14T06:55:18.029Z,1.67
2019-05-14T06:57:49.793Z,1.87
2019-05-14T07:00:21.426Z,1.60
2019-05-14T07:02:52.598Z,1.20
2019-05-14T07:05:23.809Z,1.57
2019-05-14T07:07:55.201Z,1.60
2019-05-14T07:10:28.538Z,1.27
2019-05-14T07:12:59.686Z,1.80
2019-05-14T07:15:30.542Z,1.10
2019-05-14T07:18:01.450Z,1.15
2019-05-14T07:20:32.395Z,1.35
2019-05-14T07:23:03.345Z,1.45
2019-05-14T07:25:34.413Z,1.30
2019-05-14T07:28:05.378Z,1.32
2019-05-14T07:30:39.342Z,0.98
2019-05-14T07:33:09.476Z,1.42
2019-05-14T07:35:40.513Z,1.30
2019-05-14T07:38:11.434Z,1.65
2019-05-14T07:40:42.323Z,1.37
2019-05-14T07:43:13.135Z,1.47
2019-05-14T07:45:44.011Z,1.32
2019-05-14T07:48:14.909Z,1.47
2019-05-14T07:50:49.242Z,0.95
2019-05-14T07:53:18.464Z,1.50
2019-05-14T07:55:49.453Z,1.47
2019-05-14T07:58:20.327Z,2.52
2019-05-14T08:00:51.351Z,1.57
2019-05-14T08:03:22.252Z,1.27
2019-05-14T08:05:53.194Z,1.22
2019-05-14T08:08:24.075Z,1.07
2019-05-14T08:10:55.246Z,1.10
2019-05-14T08:13:28.272Z,1.10
2019-05-14T08:15:59.229Z,1.27
2019-05-14T08:18:30.255Z,1.22
2019-05-14T08:21:01.215Z,1.80
2019-05-14T08:23:32.327Z,1.37
2019-05-14T08:26:04.144Z,2.05
2019-05-14T08:28:38.040Z,1.27
2019-05-14T08:31:09.493Z,1.00
2019-05-14T08:33:40.556Z,1.20
2019-05-14T08:36:11.445Z,1.32
2019-05-14T08:38:45.440Z,1.77
2019-05-14T08:41:14.847Z,1.52
2019-05-14T08:43:45.720Z,1.35
2019-05-14T08:46:18.849Z,1.00
2019-05-14T08:48:49.875Z,1.05
2019-05-14T08:51:21.099Z,0.95
2019-05-14T08:53:52.052Z,1.12
2019-05-14T08:56:23.042Z,1.10
2019-05-14T08:58:53.940Z,1.40
2019-05-14T09:01:24.875Z,1.30
2019-05-14T09:03:55.720Z,1.20
2019-05-14T09:06:28.834Z,2.00
2019-05-14T09:08:59.648Z,1.45
2019-05-14T09:11:35.831Z,2.85
2019-05-14T09:14:03.251Z,1.62
2019-05-14T09:16:46.007Z,1.50
2019-05-14T09:19:08.639Z,1.60
2019-05-14T09:21:39.933Z,1.45
2019-05-14T09:24:11.239Z,1.40
2019-05-14T09:26:42.105Z,1.35
2019-05-14T09:29:25.047Z,1.35
2019-05-14T09:31:45.478Z,1.55
2019-05-14T09:34:16.391Z,1.80
2019-05-14T09:36:48.899Z,1.20
2019-05-14T09:39:19.971Z,1.50
2019-05-14T09:41:50.868Z,1.27
2019-05-14T09:44:21.811Z,1.35
2019-05-14T09:46:52.635Z,1.67
2019-05-14T09:49:23.785Z,1.65
2019-05-14T09:51:54.739Z,1.55
2019-05-14T09:54:25.534Z,1.40
2019-05-14T09:56:58.963Z,1.82
2019-05-14T09:59:28.976Z,1.90
2019-05-14T10:01:59.946Z,1.25
2019-05-14T10:04:31.148Z,1.35
2019-05-14T10:07:02.047Z,1.27
2019-05-14T10:09:33.012Z,1.50
2019-05-14T10:12:04.660Z,1.67
2019-05-14T10:14:39.051Z,1.02
2019-05-14T10:17:09.060Z,1.30
2019-05-14T10:19:39.943Z,1.30
2019-05-14T10:22:10.943Z,1.10
2019-05-14T10:24:41.822Z,1.57
2019-05-14T10:27:12.718Z,1.37
2019-05-14T10:29:43.855Z,1.30
2019-05-14T10:32:14.836Z,1.40
2019-05-14T10:34:48.336Z,2.05
2019-05-14T10:37:19.229Z,1.60
2019-05-14T10:39:51.231Z,1.65
2019-05-14T10:42:22.156Z,1.40
2019-05-14T10:44:53.041Z,1.37
2019-05-14T10:47:23.909Z,1.02
2019-05-14T10:49:54.825Z,1.17
2019-05-14T10:52:25.659Z,1.10
2019-05-14T10:54:59.103Z,0.95
2019-05-14T10:57:29.114Z,1.05
2019-05-14T11:00:00.029Z,1.00
2019-05-14T11:02:30.925Z,1.20
2019-05-14T11:05:01.860Z,1.07
2019-05-14T11:07:33.025Z,0.90
2019-05-14T11:10:05.860Z,1.07
2019-05-14T11:12:39.263Z,0.93
2019-05-14T11:15:10.741Z,0.98
2019-05-14T11:17:41.895Z,1.12
2019-05-14T11:20:12.972Z,1.72
2019-05-14T11:22:44.175Z,1.35
2019-05-14T11:25:15.955Z,1.30
2019-05-14T11:27:49.360Z,1.17
2019-05-14T11:30:20.596Z,1.00
2019-05-14T11:32:51.601Z,1.40
2019-05-14T11:35:22.491Z,0.95
2019-05-14T11:37:53.720Z,1.30
2019-05-14T11:40:24.919Z,1.10
2019-05-14T11:42:55.777Z,1.05
2019-05-14T11:45:26.840Z,1.50
2019-05-14T11:47:58.359Z,1.80
2019-05-14T11:50:29.421Z,1.52
2019-05-14T11:53:00.267Z,1.37
2019-05-14T11:55:31.206Z,1.05
2019-05-14T11:58:02.093Z,1.47
2019-05-14T12:00:32.969Z,1.12
2019-05-14T12:03:03.819Z,1.05
2019-05-14T12:05:34.695Z,1.17
2019-05-14T12:08:05.617Z,0.90
2019-05-14T12:10:38.725Z,1.12
2019-05-14T12:13:09.126Z,0.80
2019-05-14T12:15:39.943Z,0.98
2019-05-14T12:18:10.769Z,1.12
2019-05-14T12:20:41.597Z,1.32
2019-05-14T12:23:12.561Z,1.67
2019-05-14T12:25:44.815Z,2.05
2019-05-14T12:28:15.834Z,1.67
2019-05-14T12:30:48.994Z,1.25
2019-05-14T12:33:19.915Z,0.93
2019-05-14T12:35:50.957Z,1.42
2019-05-14T12:38:21.880Z,1.60
2019-05-14T12:40:52.775Z,1.70
2019-05-14T12:43:23.721Z,1.50
2019-05-14T12:45:54.483Z,1.77
2019-05-14T12:48:25.367Z,1.20
2019-05-14T12:50:56.275Z,1.10
2019-05-14T12:53:28.733Z,1.20
2019-05-14T12:55:59.724Z,1.45
2019-05-14T12:58:30.668Z,1.00
2019-05-14T13:01:01.715Z,1.07
2019-05-14T13:03:32.754Z,1.02
2019-05-14T13:06:03.571Z,1.10
2019-05-14T13:08:34.555Z,1.17
2019-05-14T13:11:05.566Z,1.65
2019-05-14T13:13:42.222Z,0.82
2019-05-14T13:16:09.058Z,1.00
2019-05-14T13:18:39.912Z,1.40
2019-05-14T13:21:10.761Z,0.98
2019-05-14T13:23:41.635Z,1.12
2019-05-14T13:26:12.512Z,1.15
2019-05-14T13:28:44.427Z,1.22
2019-05-14T13:31:15.209Z,1.40
2019-05-14T13:33:48.919Z,1.12
2019-05-14T13:36:20.357Z,1.30
2019-05-14T13:38:51.765Z,1.98
2019-05-14T13:41:22.658Z,1.87
2019-05-14T13:43:53.559Z,1.53
2019-05-14T13:46:24.562Z,1.73
2019-05-14T13:48:58.793Z,1.80
2019-05-14T13:51:32.591Z,1.00
2019-05-14T13:54:01.011Z,1.50
2019-05-14T13:56:31.940Z,1.60
2019-05-14T13:59:02.879Z,1.80
2019-05-14T14:01:34.101Z,1.60
2019-05-14T14:04:11.576Z,1.20
2019-05-14T14:06:39.377Z,1.17
2019-05-14T14:09:12.527Z,1.20
2019-05-14T14:11:42.848Z,1.30
2019-05-14T14:14:13.733Z,1.40
2019-05-14T14:16:44.674Z,1.30
2019-05-14T14:19:15.594Z,1.30
2019-05-14T14:21:49.271Z,1.20
2019-05-14T14:24:19.778Z,1.23
2019-05-14T14:26:50.759Z,1.30
2019-05-14T14:29:21.896Z,1.13
2019-05-14T14:31:52.883Z,1.10
2019-05-14T14:34:24.252Z,1.40
2019-05-14T14:36:55.385Z,1.33
2019-05-14T14:39:28.591Z,1.23
2019-05-14T14:41:59.716Z,1.47
2019-05-14T14:44:30.562Z,1.20
2019-05-14T14:47:01.424Z,1.70
2019-05-14T14:49:32.257Z,1.13
2019-05-14T14:52:03.235Z,1.50
2019-05-14T14:54:34.091Z,1.40
2019-05-14T14:57:05.106Z,1.17
2019-05-14T14:59:38.810Z,1.30
2019-05-14T15:02:10.202Z,1.07
2019-05-14T15:04:41.120Z,1.10
2019-05-14T15:07:12.025Z,1.17
2019-05-14T15:09:42.937Z,1.13
2019-05-14T15:12:13.802Z,1.20
2019-05-14T15:14:44.740Z,1.87
2019-05-14T15:17:15.542Z,1.37
2019-05-14T15:19:46.575Z,1.07
2019-05-14T15:22:21.019Z,1.23
2019-05-14T15:24:50.266Z,1.53
2019-05-14T15:27:21.150Z,1.20
2019-05-14T15:29:52.121Z,1.53
2019-05-14T15:32:23.047Z,1.17
2019-05-14T15:34:54.225Z,1.37
2019-05-14T15:37:25.145Z,0.80
2019-05-14T15:39:56.020Z,1.23
2019-05-14T15:42:28.290Z,1.50
2019-05-14T15:45:00.057Z,1.30
2019-05-14T15:47:31.083Z,1.33
2019-05-14T15:50:02.358Z,1.80
2019-05-14T15:52:33.617Z,1.30
2019-05-14T15:55:04.836Z,1.87
2019-05-14T15:57:35.804Z,0.97
2019-05-14T16:00:08.690Z,1.57
2019-05-14T16:02:40.106Z,1.30
2019-05-14T16:05:11.167Z,1.20
2019-05-14T16:07:42.050Z,1.30
2019-05-14T16:10:13.085Z,1.30
2019-05-14T16:12:44.343Z,1.10
2019-05-14T16:15:15.503Z,1.33
2019-05-14T16:18:03.303Z,1.23
2019-05-14T16:20:19.279Z,1.10
2019-05-14T16:22:50.300Z,1.30
2019-05-14T16:25:21.124Z,1.70
2019-05-14T16:27:52.027Z,1.53
2019-05-14T16:30:22.929Z,1.27
2019-05-14T16:32:53.857Z,1.00
2019-05-14T16:35:25.153Z,1.00
2019-05-14T16:37:59.024Z,1.37
2019-05-14T16:40:29.207Z,1.30
2019-05-14T16:43:00.147Z,1.13
2019-05-14T16:45:31.099Z,0.90
2019-05-14T16:48:02.016Z,1.20
2019-05-14T16:50:33.157Z,1.00
2019-05-14T16:53:04.075Z,1.07
2019-05-14T16:55:35.376Z,1.37
2019-05-14T16:58:08.848Z,1.60
2019-05-14T17:00:38.793Z,1.30
2019-05-14T17:03:09.657Z,1.30
2019-05-14T17:05:40.581Z,1.70
2019-05-14T17:08:11.518Z,1.70
2019-05-14T17:10:42.371Z,2.30
2019-05-14T17:13:13.347Z,1.90
2019-05-14T17:15:44.185Z,1.80
2019-05-14T17:18:15.133Z,1.60
2019-05-14T17:20:48.619Z,2.10
2019-05-14T17:23:19.261Z,1.77
2019-05-14T17:25:51.315Z,2.00
2019-05-14T17:28:22.941Z,1.70
2019-05-14T17:30:53.904Z,1.37
2019-05-14T17:33:24.813Z,1.50
2019-05-14T17:35:58.482Z,1.03
2019-05-14T17:38:29.201Z,0.73
2019-05-14T17:41:00.291Z,1.07
2019-05-14T17:43:31.216Z,1.07
2019-05-14T17:46:02.187Z,0.77
2019-05-14T17:48:33.159Z,1.30
2019-05-14T17:51:04.068Z,0.77
2019-05-14T17:53:35.895Z,1.40
2019-05-14T17:56:08.478Z,1.50
2019-05-14T17:58:39.529Z,1.57
2019-05-14T18:01:10.459Z,0.80
2019-05-14T18:03:41.445Z,1.00
2019-05-14T18:06:12.294Z,0.90
2019-05-14T18:08:43.365Z,1.03
2019-05-14T18:11:14.349Z,1.30
2019-05-14T18:13:45.298Z,1.50
2019-05-14T18:16:16.219Z,1.10
2019-05-14T18:18:49.422Z,1.17
2019-05-14T18:21:19.691Z,1.00
2019-05-14T18:23:50.700Z,1.40
2019-05-14T18:26:21.585Z,1.07
2019-05-14T18:28:52.684Z,1.40
2019-05-14T18:31:23.502Z,1.20
2019-05-14T18:33:54.438Z,1.37
2019-05-14T18:36:25.335Z,1.57
2019-05-14T18:38:58.562Z,1.67
2019-05-14T18:41:29.486Z,1.50
2019-05-14T18:44:01.298Z,1.60
2019-05-14T18:46:33.235Z,1.17
2019-05-14T18:49:04.566Z,1.40
2019-05-14T18:51:35.560Z,1.23
2019-05-14T18:54:07.981Z,1.47
2019-05-14T18:56:38.990Z,1.93
2019-05-14T18:59:09.949Z,1.37
2019-05-14T19:01:40.784Z,1.37
2019-05-14T19:04:12.593Z,1.83
2019-05-14T19:06:43.458Z,1.67
2019-05-14T19:09:14.393Z,1.93
2019-05-14T19:11:45.299Z,2.30
2019-05-14T19:14:18.537Z,1.50
2019-05-14T19:16:49.100Z,2.43
2019-05-14T19:19:20.694Z,1.67
2019-05-14T19:21:51.652Z,1.53
2019-05-14T19:24:22.534Z,2.20
2019-05-14T19:26:53.370Z,1.80
2019-05-14T19:29:24.340Z,1.50
2019-05-14T19:31:55.524Z,1.97
2019-05-14T19:34:28.544Z,1.97
2019-05-14T19:36:59.228Z,1.67
2019-05-14T19:39:30.356Z,2.00
2019-05-14T19:42:01.366Z,2.57
2019-05-14T19:44:32.305Z,2.03
2019-05-14T19:47:03.178Z,2.07
2019-05-14T19:49:34.153Z,2.27
2019-05-14T19:52:08.095Z,1.60
2019-05-14T19:54:38.653Z,1.77
2019-05-14T19:57:10.099Z,1.77
2019-05-14T19:59:40.903Z,2.00
2019-05-14T20:02:11.806Z,2.27
2019-05-14T20:04:42.779Z,2.03
2019-05-14T20:07:13.684Z,2.03
2019-05-14T20:09:44.596Z,2.03
2019-05-14T20:12:18.066Z,2.17
2019-05-14T20:14:49.160Z,1.90
2019-05-14T20:17:20.325Z,2.37
2019-05-14T20:19:51.175Z,2.37
2019-05-14T20:22:22.283Z,2.07
2019-05-14T20:24:53.359Z,2.27
2019-05-14T20:27:25.406Z,2.03
2019-05-14T20:29:58.069Z,2.50
2019-05-14T20:32:29.048Z,2.93
2019-05-14T20:35:00.440Z,2.50
2019-05-14T20:37:32.602Z,2.40
2019-05-14T20:40:05.632Z,2.73
2019-05-14T20:42:39.098Z,2.60
2019-05-14T20:45:11.238Z,2.30
2019-05-14T20:47:45.004Z,2.20
2019-05-14T20:50:18.215Z,2.67
2019-05-14T20:52:56.153Z,2.67
2019-05-14T20:55:28.688Z,2.70
2019-05-14T20:58:00.328Z,2.70
2019-05-14T21:00:32.469Z,1.90
2019-05-14T21:03:03.614Z,2.27
2019-05-14T21:05:34.669Z,2.40
2019-05-14T21:08:06.124Z,2.17
2019-05-14T21:10:38.435Z,2.53
2019-05-14T21:13:10.426Z,2.23
2019-05-14T21:15:42.231Z,2.60
2019-05-14T21:18:14.320Z,2.03
2019-05-14T21:20:48.659Z,2.40
2019-05-14T21:23:22.168Z,2.10
2019-05-14T21:25:53.614Z,2.37
2019-05-14T21:28:24.955Z,2.60
2019-05-14T21:30:59.106Z,2.77
2019-05-14T21:33:30.356Z,2.47
2019-05-14T21:36:01.592Z,2.50
2019-05-14T21:38:32.999Z,2.87
2019-05-14T21:41:04.095Z,2.93
2019-05-14T21:43:38.401Z,2.93
2019-05-14T21:46:10.302Z,2.83
2019-05-14T21:48:41.757Z,3.33
2019-05-14T21:51:13.024Z,3.70
2019-05-14T21:53:44.207Z,3.73
2019-05-14T21:56:15.328Z,3.77
2019-05-14T21:58:48.092Z,3.00
2019-05-14T22:01:19.477Z,3.27
2019-05-14T22:03:50.440Z,3.40
2019-05-14T22:06:21.585Z,2.63
2019-05-14T22:08:52.788Z,3.03
2019-05-14T22:11:23.940Z,3.67
2019-05-14T22:13:55.048Z,2.53
2019-05-14T22:16:28.128Z,3.43
2019-05-14T22:18:59.487Z,3.00
2019-05-14T22:21:31.682Z,2.87
2019-05-14T22:24:02.606Z,2.93
2019-05-14T22:26:33.586Z,2.93
2019-05-14T22:29:04.941Z,3.40
2019-05-14T22:31:38.515Z,3.00
2019-05-14T22:34:09.577Z,3.27
2019-05-14T22:36:42.267Z,3.70
2019-05-14T22:39:13.770Z,4.10
2019-05-14T22:41:44.662Z,5.10
2019-05-14T22:44:15.776Z,4.60
2019-05-14T22:46:48.555Z,5.33
2019-05-14T22:49:19.448Z,4.90
2019-05-14T22:51:50.240Z,3.97
2019-05-14T22:54:21.389Z,3.80
2019-05-14T22:56:52.303Z,3.10
2019-05-14T22:59:23.123Z,3.00
2019-05-14T23:01:53.959Z,3.50
2019-05-14T23:04:24.895Z,3.17
2019-05-14T23:06:55.880Z,3.30
2019-05-14T23:09:26.815Z,3.27
2019-05-14T23:11:58.947Z,3.53
2019-05-14T23:14:30.285Z,3.47
2019-05-14T23:17:01.300Z,3.97
2019-05-14T23:19:34.169Z,3.90
2019-05-14T23:22:05.076Z,3.37
2019-05-14T23:24:39.117Z,3.43
2019-05-14T23:27:10.217Z,3.47
2019-05-14T23:29:41.119Z,3.43
2019-05-14T23:32:12.056Z,3.40
2019-05-14T23:34:43.014Z,3.60
2019-05-14T23:37:13.978Z,3.33
2019-05-14T23:39:44.942Z,4.07
2019-05-14T23:42:18.496Z,3.60
2019-05-14T23:44:49.203Z,3.90
2019-05-14T23:47:20.313Z,3.60
2019-05-14T23:49:51.183Z,3.67
2019-05-14T23:52:22.132Z,3.27
2019-05-14T23:54:52.986Z,3.60
2019-05-14T23:57:23.822Z,3.40
2019-05-14T23:59:54.791Z,3.60
